Historyczne dane pomiarowe

Dodano dane terminowe – wersja testowa.

Dane z okresu 1951-2019

Wersja bazy: 1.34 [2019-03-16, lista zmian], aktualizacja planowana na 2019-04-15

Dane meteo z obszaru Polski uzyskane na podstawie danych udostępnionych przez Instytut Meteorologii i Gospodarki Wodnej – Państwowy Instytut Badawczy.

 

Wybierz Datę:    

       

TemperaturaWilgotnośćWiatrCiśnienieOpadyŚniegCzas trwania zjawisk
 Stacja t tx tn tng RH VA  wxwx mslp ppp RRR   cm mm wxwxwxwxwxwxwx
1979-01-17 -5.8 -4.1 -7.9-10.9 87.3- 8.0 2.3---- 0.0-- 17---------
1979-01-18 -4.0 -3.5 -4.5 -5.9 84.8- 8.0 2.0---- 0.0-- 17---------
1979-01-19 -5.9 -3.6 -9.6-18.9 74.8- 4.7 3.3---- 0.0-- 17---------
1979-01-20-11.5 -9.4-14.3-22.1 91.5- 2.7 2.7---- 0.2-- 17---------
1979-01-21-15.2-12.5-17.9-25.4 89.5- 0.0 3.0---- 0.0-- 17---------
1979-01-22-11.4 -9.0-15.9-24.4 84.8- 8.0 2.7---- 0.0-- 16---------
1979-01-23-11.5 -8.7-14.9-21.4 91.3- 5.7 1.3---- 0.0-- 17---------
1979-01-24 -5.5 1.2-13.9-13.4 88.5- 8.0 4.3---- 0.7-- 17---------
1979-01-25 -3.3 1.1 -4.1-11.4 78.5- 8.0 5.7---- 0.0-- 18---------
1979-01-26 -5.8 -2.6 -9.7-13.4 82.0- 5.3 5.7---- 0.0-- 18---------
1979-01-27 -2.3 -0.7 -5.1 -9.1 77.3- 6.7 3.3---- 0.0-- 17---------
1979-01-28 -3.2 -1.1 -5.9 -6.5 96.3- 8.0 5.0---- 0.0-- 17---------
1979-01-29 -5.3 -2.8 -7.1 -8.6 90.0- 6.7 6.0---- 0.0-- 17---------
1979-01-30 -5.7 -4.5 -7.4 -7.0 96.5- 8.0 4.3---- 10.9-- 17---------
1979-01-31 -3.4 -1.8 -6.1 -6.5 86.5- 7.7 10.0---- 8.6-- 29---------
1979-02-01 -2.3 1.5 -6.1 -7.5 85.0- 8.0 3.3---- 1.3-- 34---------
1979-02-02 0.5 1.4 -1.0 -1.5 87.0- 8.0 4.7---- 1.1-- 32---------
1979-02-03 -0.9 0.5 -2.4 -3.5 79.8- 8.0 7.3---- 0.0-- 33---------
1979-02-04 -1.0 0.1 -3.4 -6.0 73.8- 5.0 13.3---- 0.5-- 32---------
1979-02-05 -3.4 0.2 -5.9-10.5 77.0- 5.0 2.0---- 0.0-- 33---------
1979-02-06 -4.6 -1.0 -9.9-13.1 89.5- 8.0 4.0---- 0.9-- 32---------
1979-02-07 -3.7 -1.7 -6.2-10.4 81.5- 7.3 2.0---- 0.0-- 33---------
1979-02-08 -5.5 -2.1 -8.1 -9.4 80.8- 4.0 8.0---- 5.2-- 33---------
1979-02-09 -3.1 -2.2 -4.4 -3.9 87.8- 8.0 10.0---- 4.8-- 40---------
1979-02-10 -4.7 -1.4 -8.5 -4.7 85.8- 3.7 4.7---- 0.0-- 46---------
1979-02-11 -4.8 -0.5 -8.5 -8.4 80.0- 3.0 3.3---- 0.0-- 46---------
1979-02-12-11.6 -4.6-21.4-26.7 81.5- 4.7 1.7---- 0.0-- 46---------
1979-02-13 -8.8 -5.6-12.9-17.9 81.0- 5.0 3.3---- 0.0-- 46---------
1979-02-14-16.7 -9.6-18.9-18.5 82.8- 6.0 7.3---- 6.5-- 46---------
1979-02-15-15.5-12.9-18.7-18.7 83.5- 8.0 10.0---- 5.1-- 52---------
250.9 ms

 

Źródłem pochodzenia danych jest Instytut Meteorologii i Gospodarki Wodnej – Państwowy Instytut Badawczy. Dane Instytutu Meteorologii i Gospodarki Wodnej – Państwowego Instytutu Badawczego zostały przetworzone.

Dane źródłowe można odnaleźć na stronie https://dane.imgw.pl